»·PEaware :: N427LJ KDVO-KMRY

N427LJ :: KDVO-KMRY

FLIGHT INFORMATION

Flight Status: Arrived
Operator: Privately registered:
United States
More flights under this callsign
Pilot: Anonymous 27948 (27948)
Aircraft: CESSNA 172 SKYHAWK
(C172)
More flights by this aircraft type
Origin: KDVO Gnoss
United States
Destination: KMRY Monterey Peninsula
United States
More flights between these airports :: More routes between these airports
Route: SGD PYE V27 SHOEY
File this flight plan on PilotEdge
Remarks:
Altitude:
(Current/Filed)
8,000ft
Speed:
(Current/Filed)
120kts
Departed: 28-Jun-20 11:19 AM
Arrived: 28-Jun-20 12:40 PM
Distance/Time
Traveled:
99nm/1:20
Distance/Time
To Go:
Arrived

Flight Plot

Page will automatically refresh every two minutes.

Flight plan parsing failed; only flown route is shown


Map Options




Map Legend


Flown Route
Filed Route
Departure Airport
Arrival Airport
Navaid (VOR, NDB)
Fix

Horizontal Profiles

Position Reports

Time Latitude Longitude Heading Altitude Ground
Speed
28-Jun-20 11:12 38.140325 -122.555749 116 7ft 4kts
28-Jun-20 11:13 38.139447 -122.554717 57 7ft 0kts
28-Jun-20 11:14 38.139447 -122.554717 57 7ft 0kts
28-Jun-20 11:15 38.139447 -122.554717 57 7ft 0kts
28-Jun-20 11:16 38.139447 -122.554717 57 7ft 0kts
28-Jun-20 11:17 38.139544 -122.554506 55 7ft 7kts
28-Jun-20 11:18 38.150755 -122.563186 325 503ft 76kts
28-Jun-20 11:19 38.156648 -122.547388 105 1542ft 77kts
28-Jun-20 11:20 38.153191 -122.519912 85 2520ft 80kts
28-Jun-20 11:21 38.156944 -122.490675 77 3392ft 89kts
28-Jun-20 11:22 38.162932 -122.458381 75 4139ft 99kts
28-Jun-20 11:23 38.169625 -122.423724 75 4838ft 101kts
28-Jun-20 11:24 38.176373 -122.388624 80 5494ft 103kts
28-Jun-20 11:25 38.157987 -122.384688 257 6087ft 103kts
28-Jun-20 11:26 38.164218 -122.420500 281 6657ft 104kts
28-Jun-20 11:27 38.162111 -122.457327 257 7186ft 105kts
28-Jun-20 11:28 38.155229 -122.493679 255 7687ft 105kts
28-Jun-20 11:29 38.147956 -122.530112 255 8072ft 113kts
28-Jun-20 11:30 38.139557 -122.572079 255 8074ft 127kts
28-Jun-20 11:31 38.130513 -122.617007 255 8073ft 133kts
28-Jun-20 11:32 38.120912 -122.662376 257 8073ft 133kts
28-Jun-20 11:33 38.112156 -122.707953 255 8073ft 132kts
28-Jun-20 11:34 38.102995 -122.753266 255 8073ft 132kts
28-Jun-20 11:35 38.093773 -122.798725 255 8073ft 132kts
28-Jun-20 11:36 38.084567 -122.844014 255 8073ft 132kts
28-Jun-20 11:37 38.053822 -122.855652 164 8073ft 132kts
28-Jun-20 11:38 38.018774 -122.841222 160 8073ft 132kts
28-Jun-20 11:39 37.983819 -122.826044 160 8073ft 132kts
28-Jun-20 11:40 37.948950 -122.810904 160 8073ft 132kts
28-Jun-20 11:41 37.914046 -122.795764 160 8073ft 132kts
28-Jun-20 11:42 37.878948 -122.780555 160 8073ft 132kts
28-Jun-20 11:43 37.844133 -122.765484 160 8073ft 132kts
28-Jun-20 11:44 37.809219 -122.750385 160 8073ft 132kts
28-Jun-20 11:45 37.774235 -122.735273 160 8073ft 132kts
28-Jun-20 11:46 37.739363 -122.720224 160 8073ft 132kts
28-Jun-20 11:47 37.704421 -122.705160 160 8073ft 132kts
28-Jun-20 11:48 37.669431 -122.690084 160 8073ft 132kts
28-Jun-20 11:49 37.634485 -122.675019 160 8073ft 132kts
28-Jun-20 11:50 37.599543 -122.659990 160 8073ft 132kts
28-Jun-20 11:51 37.564637 -122.644997 160 8073ft 132kts
28-Jun-20 11:52 37.529739 -122.630024 160 8073ft 132kts
28-Jun-20 11:53 37.494713 -122.615010 160 8073ft 132kts
28-Jun-20 11:54 37.459796 -122.600059 160 8073ft 132kts
28-Jun-20 11:55 37.424796 -122.585086 160 8073ft 132kts
28-Jun-20 11:56 37.389813 -122.570138 160 8050ft 134kts
28-Jun-20 11:57 37.354770 -122.555180 160 8045ft 133kts
28-Jun-20 11:58 37.319731 -122.540238 160 8045ft 133kts
28-Jun-20 11:59 37.284728 -122.525326 160 8045ft 133kts
28-Jun-20 12:00 37.249743 -122.510439 160 8045ft 133kts
28-Jun-20 12:01 37.214737 -122.495559 160 8045ft 133kts
28-Jun-20 12:02 37.179761 -122.480707 160 8045ft 133kts
28-Jun-20 12:03 37.144809 -122.465879 160 8045ft 133kts
28-Jun-20 12:04 37.109767 -122.451028 160 8045ft 133kts
28-Jun-20 12:05 37.077452 -122.429305 144 8045ft 133kts
28-Jun-20 12:06 37.047253 -122.402806 144 8045ft 133kts
28-Jun-20 12:07 37.017101 -122.376044 144 8045ft 133kts
28-Jun-20 12:08 36.986952 -122.349241 144 8045ft 133kts
28-Jun-20 12:09 36.959829 -122.318747 118 8046ft 132kts
28-Jun-20 12:10 36.943046 -122.277558 117 8045ft 133kts
28-Jun-20 12:11 36.926155 -122.236320 117 8045ft 133kts
28-Jun-20 12:12 36.909285 -122.195233 117 8045ft 133kts
28-Jun-20 12:13 36.892410 -122.154172 117 8045ft 133kts
28-Jun-20 12:14 36.875459 -122.112976 117 8045ft 133kts
28-Jun-20 12:15 36.858544 -122.071925 117 8045ft 133kts
28-Jun-20 12:16 36.841607 -122.030870 117 8045ft 133kts
28-Jun-20 12:17 36.824569 -121.989625 117 8045ft 133kts
28-Jun-20 12:18 36.807647 -121.948712 117 8045ft 133kts
28-Jun-20 12:19 36.790628 -121.907618 117 8045ft 132kts
28-Jun-20 12:20 36.774296 -121.868287 117 8045ft 124kts
28-Jun-20 12:21 36.758683 -121.830759 117 7672ft 119kts
28-Jun-20 12:22 36.743632 -121.794560 117 7072ft 117kts
28-Jun-20 12:23 36.728650 -121.758579 117 6108ft 117kts
28-Jun-20 12:24 36.713950 -121.723201 117 6045ft 115kts
28-Jun-20 12:25 36.699184 -121.687786 117 6045ft 115kts
28-Jun-20 12:26 36.684415 -121.652407 117 6045ft 114kts
28-Jun-20 12:27 36.669691 -121.617182 117 6044ft 112kts
28-Jun-20 12:28 36.644178 -121.595397 159 5434ft 119kts
28-Jun-20 12:29 36.613952 -121.582324 161 5145ft 110kts
28-Jun-20 12:30 36.585149 -121.570279 163 5127ft 111kts
28-Jun-20 12:32 36.564890 -121.597399 251 4200ft 115kts
28-Jun-20 12:33 36.563854 -121.632917 274 4000ft 105kts
28-Jun-20 12:34 36.566944 -121.669648 275 3364ft 107kts
28-Jun-20 12:35 36.570172 -121.706867 275 2671ft 109kts
28-Jun-20 12:36 36.573346 -121.743736 275 1969ft 103kts
28-Jun-20 12:37 36.576364 -121.778955 275 1304ft 101kts
28-Jun-20 12:38 36.579339 -121.813412 276 636ft 91kts
28-Jun-20 12:39 36.585087 -121.838597 292 242ft 49kts
28-Jun-20 12:40 36.586864 -121.845992 233 194ft 0kts
28-Jun-20 12:41 36.587212 -121.847538 291 188ft 21kts
28-Jun-20 12:42 36.589187 -121.856547 261 160ft 20kts

Navigation Log

Ident Type
Flight plan parsing failed, navigation log unavailable